sensor_id;sensor_type;location;lat;lon;timestamp;P1;durP1;ratioP1;P2;durP2;ratioP2
8086;SDS011;4086;54.412;9.980;2023-07-20T00:02:23;2.70;;;2.60;;
8086;SDS011;4086;54.412;9.980;2023-07-20T00:04:49;3.37;;;3.13;;
8086;SDS011;4086;54.412;9.980;2023-07-20T00:07:16;3.33;;;3.07;;
8086;SDS011;4086;54.412;9.980;2023-07-20T00:09:42;3.50;;;3.20;;
8086;SDS011;4086;54.412;9.980;2023-07-20T00:12:08;3.40;;;3.20;;
8086;SDS011;4086;54.412;9.980;2023-07-20T00:14:36;3.40;;;3.10;;
8086;SDS011;4086;54.412;9.980;2023-07-20T00:17:03;2.90;;;2.70;;
8086;SDS011;4086;54.412;9.980;2023-07-20T00:19:29;3.47;;;3.17;;
8086;SDS011;4086;54.412;9.980;2023-07-20T00:21:57;3.60;;;3.40;;
8086;SDS011;4086;54.412;9.980;2023-07-20T00:24:24;3.67;;;3.20;;
8086;SDS011;4086;54.412;9.980;2023-07-20T00:26:50;3.23;;;3.03;;
8086;SDS011;4086;54.412;9.980;2023-07-20T00:29:17;3.50;;;3.20;;
8086;SDS011;4086;54.412;9.980;2023-07-20T00:31:45;3.80;;;3.50;;
8086;SDS011;4086;54.412;9.980;2023-07-20T00:34:11;3.07;;;2.87;;
8086;SDS011;4086;54.412;9.980;2023-07-20T00:36:38;3.60;;;3.40;;
8086;SDS011;4086;54.412;9.980;2023-07-20T00:39:04;3.30;;;2.93;;
8086;SDS011;4086;54.412;9.980;2023-07-20T00:41:30;3.27;;;3.07;;
8086;SDS011;4086;54.412;9.980;2023-07-20T00:43:58;3.50;;;3.20;;
8086;SDS011;4086;54.412;9.980;2023-07-20T00:46:24;3.60;;;3.40;;
8086;SDS011;4086;54.412;9.980;2023-07-20T00:48:52;4.33;;;4.03;;
8086;SDS011;4086;54.412;9.980;2023-07-20T00:51:19;4.53;;;4.13;;
8086;SDS011;4086;54.412;9.980;2023-07-20T00:53:46;4.30;;;4.00;;
8086;SDS011;4086;54.412;9.980;2023-07-20T00:56:14;4.30;;;4.00;;
8086;SDS011;4086;54.412;9.980;2023-07-20T00:58:40;4.30;;;4.00;;
8086;SDS011;4086;54.412;9.980;2023-07-20T01:01:07;4.00;;;3.70;;
8086;SDS011;4086;54.412;9.980;2023-07-20T01:03:33;4.83;;;4.20;;
8086;SDS011;4086;54.412;9.980;2023-07-20T01:06:03;3.90;;;3.70;;
8086;SDS011;4086;54.412;9.980;2023-07-20T01:08:37;3.97;;;3.67;;
8086;SDS011;4086;54.412;9.980;2023-07-20T01:11:08;3.97;;;3.60;;
8086;SDS011;4086;54.412;9.980;2023-07-20T01:13:36;5.00;;;4.60;;
8086;SDS011;4086;54.412;9.980;2023-07-20T01:16:03;4.13;;;3.83;;
8086;SDS011;4086;54.412;9.980;2023-07-20T01:18:30;3.90;;;3.70;;
8086;SDS011;4086;54.412;9.980;2023-07-20T01:20:57;5.07;;;4.57;;
8086;SDS011;4086;54.412;9.980;2023-07-20T01:23:31;4.60;;;4.23;;
8086;SDS011;4086;54.412;9.980;2023-07-20T01:26:21;4.30;;;4.00;;
8086;SDS011;4086;54.412;9.980;2023-07-20T01:29:08;4.33;;;3.87;;
8086;SDS011;4086;54.412;9.980;2023-07-20T01:31:41;4.00;;;3.70;;
8086;SDS011;4086;54.412;9.980;2023-07-20T01:34:08;4.37;;;4.07;;
8086;SDS011;4086;54.412;9.980;2023-07-20T01:36:39;4.07;;;3.77;;
8086;SDS011;4086;54.412;9.980;2023-07-20T01:39:06;4.20;;;3.90;;
8086;SDS011;4086;54.412;9.980;2023-07-20T01:41:32;4.37;;;4.07;;
8086;SDS011;4086;54.412;9.980;2023-07-20T01:43:59;3.83;;;3.57;;
8086;SDS011;4086;54.412;9.980;2023-07-20T01:46:25;5.43;;;4.17;;
8086;SDS011;4086;54.412;9.980;2023-07-20T01:48:53;3.97;;;3.70;;
8086;SDS011;4086;54.412;9.980;2023-07-20T01:51:20;3.50;;;3.20;;
8086;SDS011;4086;54.412;9.980;2023-07-20T01:53:47;4.63;;;4.23;;
8086;SDS011;4086;54.412;9.980;2023-07-20T01:56:13;5.20;;;4.70;;
8086;SDS011;4086;54.412;9.980;2023-07-20T01:58:39;4.90;;;4.50;;
8086;SDS011;4086;54.412;9.980;2023-07-20T02:01:06;4.47;;;4.17;;
8086;SDS011;4086;54.412;9.980;2023-07-20T02:03:32;4.83;;;4.43;;
8086;SDS011;4086;54.412;9.980;2023-07-20T02:06:00;3.83;;;3.60;;
8086;SDS011;4086;54.412;9.980;2023-07-20T02:08:26;4.80;;;4.40;;
8086;SDS011;4086;54.412;9.980;2023-07-20T02:10:53;4.43;;;4.13;;
8086;SDS011;4086;54.412;9.980;2023-07-20T02:13:19;4.30;;;4.00;;
8086;SDS011;4086;54.412;9.980;2023-07-20T02:15:45;4.70;;;4.40;;
8086;SDS011;4086;54.412;9.980;2023-07-20T02:18:14;4.33;;;3.97;;
8086;SDS011;4086;54.412;9.980;2023-07-20T02:20:40;5.33;;;4.47;;
8086;SDS011;4086;54.412;9.980;2023-07-20T02:23:09;5.00;;;4.50;;
8086;SDS011;4086;54.412;9.980;2023-07-20T02:25:36;4.40;;;4.10;;
8086;SDS011;4086;54.412;9.980;2023-07-20T02:28:03;4.00;;;3.70;;
8086;SDS011;4086;54.412;9.980;2023-07-20T02:30:30;4.10;;;3.90;;
8086;SDS011;4086;54.412;9.980;2023-07-20T02:32:56;4.47;;;4.17;;
8086;SDS011;4086;54.412;9.980;2023-07-20T02:35:23;4.60;;;4.20;;
8086;SDS011;4086;54.412;9.980;2023-07-20T02:37:50;4.73;;;4.30;;
8086;SDS011;4086;54.412;9.980;2023-07-20T02:40:17;4.63;;;4.33;;
8086;SDS011;4086;54.412;9.980;2023-07-20T02:42:44;5.57;;;5.07;;
8086;SDS011;4086;54.412;9.980;2023-07-20T02:45:10;5.97;;;5.47;;
8086;SDS011;4086;54.412;9.980;2023-07-20T02:47:36;7.10;;;5.83;;
8086;SDS011;4086;54.412;9.980;2023-07-20T02:50:05;6.33;;;5.60;;
8086;SDS011;4086;54.412;9.980;2023-07-20T02:52:33;5.83;;;5.33;;
8086;SDS011;4086;54.412;9.980;2023-07-20T02:55:00;4.77;;;4.40;;
8086;SDS011;4086;54.412;9.980;2023-07-20T02:57:27;5.17;;;4.77;;
8086;SDS011;4086;54.412;9.980;2023-07-20T02:59:54;5.90;;;5.30;;
8086;SDS011;4086;54.412;9.980;2023-07-20T03:02:20;5.07;;;4.70;;
8086;SDS011;4086;54.412;9.980;2023-07-20T03:04:46;4.80;;;4.40;;
8086;SDS011;4086;54.412;9.980;2023-07-20T03:07:13;5.00;;;4.53;;
8086;SDS011;4086;54.412;9.980;2023-07-20T03:09:39;4.43;;;4.10;;
8086;SDS011;4086;54.412;9.980;2023-07-20T03:12:06;4.47;;;4.07;;
8086;SDS011;4086;54.412;9.980;2023-07-20T03:14:35;4.77;;;4.37;;
8086;SDS011;4086;54.412;9.980;2023-07-20T03:17:02;4.33;;;4.03;;
8086;SDS011;4086;54.412;9.980;2023-07-20T03:19:29;4.30;;;4.00;;
8086;SDS011;4086;54.412;9.980;2023-07-20T03:21:56;4.03;;;3.73;;
8086;SDS011;4086;54.412;9.980;2023-07-20T03:24:22;4.47;;;4.10;;
8086;SDS011;4086;54.412;9.980;2023-07-20T03:26:49;4.87;;;4.13;;
8086;SDS011;4086;54.412;9.980;2023-07-20T03:29:15;5.20;;;4.57;;
8086;SDS011;4086;54.412;9.980;2023-07-20T03:31:43;5.03;;;4.70;;
8086;SDS011;4086;54.412;9.980;2023-07-20T03:34:10;5.33;;;4.20;;
8086;SDS011;4086;54.412;9.980;2023-07-20T03:36:36;4.37;;;3.83;;
8086;SDS011;4086;54.412;9.980;2023-07-20T03:39:02;5.37;;;4.87;;
8086;SDS011;4086;54.412;9.980;2023-07-20T03:41:29;4.20;;;3.90;;
8086;SDS011;4086;54.412;9.980;2023-07-20T03:43:55;5.13;;;4.63;;
8086;SDS011;4086;54.412;9.980;2023-07-20T03:46:22;5.43;;;4.40;;
8086;SDS011;4086;54.412;9.980;2023-07-20T03:48:49;4.80;;;4.30;;
8086;SDS011;4086;54.412;9.980;2023-07-20T03:51:16;4.73;;;4.37;;
8086;SDS011;4086;54.412;9.980;2023-07-20T03:53:42;5.43;;;3.93;;
8086;SDS011;4086;54.412;9.980;2023-07-20T03:56:08;4.60;;;4.23;;
8086;SDS011;4086;54.412;9.980;2023-07-20T03:58:35;4.87;;;4.37;;
8086;SDS011;4086;54.412;9.980;2023-07-20T04:01:01;4.70;;;4.30;;
8086;SDS011;4086;54.412;9.980;2023-07-20T04:03:28;3.90;;;3.60;;
8086;SDS011;4086;54.412;9.980;2023-07-20T04:05:56;4.63;;;4.23;;
8086;SDS011;4086;54.412;9.980;2023-07-20T04:08:22;4.30;;;3.73;;
8086;SDS011;4086;54.412;9.980;2023-07-20T04:10:50;5.73;;;4.23;;
8086;SDS011;4086;54.412;9.980;2023-07-20T04:13:16;4.93;;;4.40;;
8086;SDS011;4086;54.412;9.980;2023-07-20T04:15:43;7.70;;;4.43;;
8086;SDS011;4086;54.412;9.980;2023-07-20T04:18:09;3.97;;;3.67;;
8086;SDS011;4086;54.412;9.980;2023-07-20T04:20:35;5.13;;;4.63;;
8086;SDS011;4086;54.412;9.980;2023-07-20T04:23:03;3.53;;;3.23;;
8086;SDS011;4086;54.412;9.980;2023-07-20T04:25:30;4.50;;;4.10;;
8086;SDS011;4086;54.412;9.980;2023-07-20T04:28:04;4.33;;;4.03;;
8086;SDS011;4086;54.412;9.980;2023-07-20T04:30:33;4.60;;;3.90;;
8086;SDS011;4086;54.412;9.980;2023-07-20T04:33:00;4.70;;;3.97;;
8086;SDS011;4086;54.412;9.980;2023-07-20T04:35:45;3.67;;;3.43;;
8086;SDS011;4086;54.412;9.980;2023-07-20T04:38:16;4.10;;;3.70;;
8086;SDS011;4086;54.412;9.980;2023-07-20T04:40:43;5.67;;;3.53;;
8086;SDS011;4086;54.412;9.980;2023-07-20T04:43:10;3.90;;;3.60;;
8086;SDS011;4086;54.412;9.980;2023-07-20T04:45:36;4.13;;;3.80;;
8086;SDS011;4086;54.412;9.980;2023-07-20T04:48:03;3.70;;;3.40;;
8086;SDS011;4086;54.412;9.980;2023-07-20T04:50:31;4.07;;;3.70;;
8086;SDS011;4086;54.412;9.980;2023-07-20T04:52:58;3.60;;;3.30;;
8086;SDS011;4086;54.412;9.980;2023-07-20T04:55:26;3.73;;;3.47;;
8086;SDS011;4086;54.412;9.980;2023-07-20T04:57:53;4.50;;;3.03;;
8086;SDS011;4086;54.412;9.980;2023-07-20T05:00:19;5.47;;;3.47;;
8086;SDS011;4086;54.412;9.980;2023-07-20T05:02:46;4.03;;;3.40;;
8086;SDS011;4086;54.412;9.980;2023-07-20T05:05:14;4.43;;;2.90;;
8086;SDS011;4086;54.412;9.980;2023-07-20T05:07:40;3.60;;;2.97;;
8086;SDS011;4086;54.412;9.980;2023-07-20T05:10:07;2.80;;;2.60;;
8086;SDS011;4086;54.412;9.980;2023-07-20T05:12:35;3.43;;;2.87;;
8086;SDS011;4086;54.412;9.980;2023-07-20T05:15:01;4.80;;;2.70;;
8086;SDS011;4086;54.412;9.980;2023-07-20T05:17:28;2.70;;;2.50;;
8086;SDS011;4086;54.412;9.980;2023-07-20T05:19:55;3.50;;;3.07;;
8086;SDS011;4086;54.412;9.980;2023-07-20T05:22:21;2.37;;;2.17;;
8086;SDS011;4086;54.412;9.980;2023-07-20T05:24:48;3.23;;;2.60;;
8086;SDS011;4086;54.412;9.980;2023-07-20T05:27:14;3.03;;;2.77;;
8086;SDS011;4086;54.412;9.980;2023-07-20T05:29:44;3.63;;;2.77;;
8086;SDS011;4086;54.412;9.980;2023-07-20T05:32:10;3.90;;;2.20;;
8086;SDS011;4086;54.412;9.980;2023-07-20T05:34:37;3.10;;;2.10;;
8086;SDS011;4086;54.412;9.980;2023-07-20T05:37:03;3.53;;;2.53;;
8086;SDS011;4086;54.412;9.980;2023-07-20T05:39:31;2.43;;;2.23;;
8086;SDS011;4086;54.412;9.980;2023-07-20T05:41:58;3.60;;;2.73;;
8086;SDS011;4086;54.412;9.980;2023-07-20T05:44:24;4.07;;;2.47;;
8086;SDS011;4086;54.412;9.980;2023-07-20T05:46:52;3.73;;;2.73;;
8086;SDS011;4086;54.412;9.980;2023-07-20T05:49:18;4.97;;;2.77;;
8086;SDS011;4086;54.412;9.980;2023-07-20T05:51:45;5.03;;;2.67;;
8086;SDS011;4086;54.412;9.980;2023-07-20T05:54:11;6.43;;;2.97;;
8086;SDS011;4086;54.412;9.980;2023-07-20T05:56:38;4.47;;;2.97;;
8086;SDS011;4086;54.412;9.980;2023-07-20T05:59:04;4.63;;;2.40;;
8086;SDS011;4086;54.412;9.980;2023-07-20T06:01:30;4.77;;;2.73;;
8086;SDS011;4086;54.412;9.980;2023-07-20T06:03:58;6.00;;;3.20;;
8086;SDS011;4086;54.412;9.980;2023-07-20T06:06:25;2.73;;;2.50;;
8086;SDS011;4086;54.412;9.980;2023-07-20T06:08:51;3.00;;;2.60;;
8086;SDS011;4086;54.412;9.980;2023-07-20T06:11:18;4.13;;;2.83;;
8086;SDS011;4086;54.412;9.980;2023-07-20T06:13:44;4.33;;;2.47;;
8086;SDS011;4086;54.412;9.980;2023-07-20T06:16:10;4.27;;;2.87;;
8086;SDS011;4086;54.412;9.980;2023-07-20T06:18:37;3.87;;;2.37;;
8086;SDS011;4086;54.412;9.980;2023-07-20T06:21:05;4.57;;;2.60;;
8086;SDS011;4086;54.412;9.980;2023-07-20T06:23:31;4.70;;;2.60;;
8086;SDS011;4086;54.412;9.980;2023-07-20T06:25:57;4.67;;;2.63;;
8086;SDS011;4086;54.412;9.980;2023-07-20T06:28:24;8.30;;;3.03;;
8086;SDS011;4086;54.412;9.980;2023-07-20T06:30:50;5.17;;;2.70;;
8086;SDS011;4086;54.412;9.980;2023-07-20T06:33:17;4.37;;;2.90;;
8086;SDS011;4086;54.412;9.980;2023-07-20T06:35:43;3.03;;;2.57;;
8086;SDS011;4086;54.412;9.980;2023-07-20T06:38:11;4.23;;;2.40;;
8086;SDS011;4086;54.412;9.980;2023-07-20T06:40:37;5.57;;;2.50;;
8086;SDS011;4086;54.412;9.980;2023-07-20T06:43:04;5.17;;;2.80;;
8086;SDS011;4086;54.412;9.980;2023-07-20T06:45:30;5.83;;;2.83;;
8086;SDS011;4086;54.412;9.980;2023-07-20T06:47:56;5.23;;;2.57;;
8086;SDS011;4086;54.412;9.980;2023-07-20T06:50:23;8.60;;;2.93;;
8086;SDS011;4086;54.412;9.980;2023-07-20T06:52:49;6.10;;;2.87;;
8086;SDS011;4086;54.412;9.980;2023-07-20T06:55:17;4.00;;;2.47;;
8086;SDS011;4086;54.412;9.980;2023-07-20T06:57:43;4.63;;;2.67;;
8086;SDS011;4086;54.412;9.980;2023-07-20T07:00:10;5.60;;;2.50;;
8086;SDS011;4086;54.412;9.980;2023-07-20T07:02:37;5.47;;;2.70;;
8086;SDS011;4086;54.412;9.980;2023-07-20T07:05:04;5.57;;;2.50;;
8086;SDS011;4086;54.412;9.980;2023-07-20T07:07:31;4.83;;;2.33;;
8086;SDS011;4086;54.412;9.980;2023-07-20T07:09:57;5.07;;;2.43;;
8086;SDS011;4086;54.412;9.980;2023-07-20T07:12:26;2.70;;;2.13;;
8086;SDS011;4086;54.412;9.980;2023-07-20T07:14:52;3.80;;;2.33;;
8086;SDS011;4086;54.412;9.980;2023-07-20T07:17:18;4.70;;;2.50;;
8086;SDS011;4086;54.412;9.980;2023-07-20T07:19:45;4.03;;;2.23;;
8086;SDS011;4086;54.412;9.980;2023-07-20T07:22:11;5.83;;;2.50;;
8086;SDS011;4086;54.412;9.980;2023-07-20T07:24:38;4.33;;;2.20;;
8086;SDS011;4086;54.412;9.980;2023-07-20T07:27:07;5.40;;;2.20;;
8086;SDS011;4086;54.412;9.980;2023-07-20T07:29:35;6.53;;;2.50;;
8086;SDS011;4086;54.412;9.980;2023-07-20T07:32:02;7.23;;;2.53;;
8086;SDS011;4086;54.412;9.980;2023-07-20T07:34:29;4.30;;;2.37;;
8086;SDS011;4086;54.412;9.980;2023-07-20T07:36:56;8.00;;;2.60;;
8086;SDS011;4086;54.412;9.980;2023-07-20T07:39:23;4.03;;;1.80;;
8086;SDS011;4086;54.412;9.980;2023-07-20T07:41:50;4.77;;;2.30;;
8086;SDS011;4086;54.412;9.980;2023-07-20T07:44:17;8.07;;;2.60;;
8086;SDS011;4086;54.412;9.980;2023-07-20T07:46:45;5.67;;;2.40;;
8086;SDS011;4086;54.412;9.980;2023-07-20T07:49:11;6.57;;;2.60;;
8086;SDS011;4086;54.412;9.980;2023-07-20T07:51:38;5.27;;;3.00;;
8086;SDS011;4086;54.412;9.980;2023-07-20T07:54:04;6.93;;;3.00;;
8086;SDS011;4086;54.412;9.980;2023-07-20T07:56:30;7.30;;;3.00;;
8086;SDS011;4086;54.412;9.980;2023-07-20T07:58:57;9.10;;;3.03;;
8086;SDS011;4086;54.412;9.980;2023-07-20T08:01:23;6.10;;;3.23;;
8086;SDS011;4086;54.412;9.980;2023-07-20T08:03:51;6.40;;;2.73;;
8086;SDS011;4086;54.412;9.980;2023-07-20T08:06:18;7.90;;;3.63;;
8086;SDS011;4086;54.412;9.980;2023-07-20T08:08:44;10.23;;;3.33;;
8086;SDS011;4086;54.412;9.980;2023-07-20T08:11:10;4.50;;;3.07;;
8086;SDS011;4086;54.412;9.980;2023-07-20T08:13:37;6.83;;;3.47;;
8086;SDS011;4086;54.412;9.980;2023-07-20T08:16:03;8.37;;;3.07;;
8086;SDS011;4086;54.412;9.980;2023-07-20T08:18:30;4.67;;;2.60;;
8086;SDS011;4086;54.412;9.980;2023-07-20T08:20:58;5.10;;;2.43;;
8086;SDS011;4086;54.412;9.980;2023-07-20T08:23:24;5.63;;;2.40;;
8086;SDS011;4086;54.412;9.980;2023-07-20T08:25:52;5.47;;;2.10;;
8086;SDS011;4086;54.412;9.980;2023-07-20T08:28:18;4.60;;;2.00;;
8086;SDS011;4086;54.412;9.980;2023-07-20T08:30:46;5.80;;;2.00;;
8086;SDS011;4086;54.412;9.980;2023-07-20T08:33:13;2.93;;;1.60;;
8086;SDS011;4086;54.412;9.980;2023-07-20T08:35:40;2.47;;;1.50;;
8086;SDS011;4086;54.412;9.980;2023-07-20T08:38:08;4.50;;;1.47;;
8086;SDS011;4086;54.412;9.980;2023-07-20T08:40:38;3.60;;;1.63;;
8086;SDS011;4086;54.412;9.980;2023-07-20T08:43:05;2.63;;;1.50;;
8086;SDS011;4086;54.412;9.980;2023-07-20T08:45:32;2.80;;;1.60;;
8086;SDS011;4086;54.412;9.980;2023-07-20T08:47:59;4.83;;;1.60;;
8086;SDS011;4086;54.412;9.980;2023-07-20T08:50:27;4.80;;;1.70;;
8086;SDS011;4086;54.412;9.980;2023-07-20T08:52:55;2.73;;;1.17;;
8086;SDS011;4086;54.412;9.980;2023-07-20T08:55:24;3.70;;;1.70;;
8086;SDS011;4086;54.412;9.980;2023-07-20T08:57:53;3.27;;;1.53;;
8086;SDS011;4086;54.412;9.980;2023-07-20T09:00:21;2.30;;;1.20;;
8086;SDS011;4086;54.412;9.980;2023-07-20T09:02:48;4.37;;;1.57;;
8086;SDS011;4086;54.412;9.980;2023-07-20T09:05:16;5.17;;;1.60;;
8086;SDS011;4086;54.412;9.980;2023-07-20T09:07:42;4.80;;;1.60;;
8086;SDS011;4086;54.412;9.980;2023-07-20T09:10:09;1.90;;;1.40;;
8086;SDS011;4086;54.412;9.980;2023-07-20T09:12:37;2.73;;;1.50;;
8086;SDS011;4086;54.412;9.980;2023-07-20T09:15:05;2.70;;;1.60;;
8086;SDS011;4086;54.412;9.980;2023-07-20T09:17:32;5.07;;;1.60;;
8086;SDS011;4086;54.412;9.980;2023-07-20T09:19:59;3.53;;;1.47;;
8086;SDS011;4086;54.412;9.980;2023-07-20T09:22:30;5.30;;;1.40;;
8086;SDS011;4086;54.412;9.980;2023-07-20T09:24:57;2.50;;;1.30;;
8086;SDS011;4086;54.412;9.980;2023-07-20T09:27:24;1.47;;;1.20;;
8086;SDS011;4086;54.412;9.980;2023-07-20T09:30:02;0.77;;;0.73;;
8086;SDS011;4086;54.412;9.980;2023-07-20T09:32:30;0.70;;;0.70;;
8086;SDS011;4086;54.412;9.980;2023-07-20T09:34:56;1.37;;;0.77;;
8086;SDS011;4086;54.412;9.980;2023-07-20T09:37:23;1.50;;;0.80;;
8086;SDS011;4086;54.412;9.980;2023-07-20T09:39:51;1.23;;;0.70;;
8086;SDS011;4086;54.412;9.980;2023-07-20T09:42:18;1.27;;;0.60;;
8086;SDS011;4086;54.412;9.980;2023-07-20T09:44:45;0.63;;;0.60;;
8086;SDS011;4086;54.412;9.980;2023-07-20T09:47:14;0.60;;;0.60;;
8086;SDS011;4086;54.412;9.980;2023-07-20T09:49:47;0.80;;;0.80;;
8086;SDS011;4086;54.412;9.980;2023-07-20T09:52:14;1.73;;;0.70;;
8086;SDS011;4086;54.412;9.980;2023-07-20T09:54:41;0.83;;;0.83;;
8086;SDS011;4086;54.412;9.980;2023-07-20T09:57:11;4.30;;;1.10;;
8086;SDS011;4086;54.412;9.980;2023-07-20T09:59:39;3.03;;;0.80;;
8086;SDS011;4086;54.412;9.980;2023-07-20T10:02:20;1.97;;;1.10;;
8086;SDS011;4086;54.412;9.980;2023-07-20T10:04:49;1.87;;;0.90;;
8086;SDS011;4086;54.412;9.980;2023-07-20T10:07:17;1.23;;;0.70;;
8086;SDS011;4086;54.412;9.980;2023-07-20T10:09:47;1.80;;;0.80;;
8086;SDS011;4086;54.412;9.980;2023-07-20T10:12:14;2.03;;;1.00;;
8086;SDS011;4086;54.412;9.980;2023-07-20T10:14:42;1.63;;;0.97;;
8086;SDS011;4086;54.412;9.980;2023-07-20T10:17:13;2.60;;;1.07;;
8086;SDS011;4086;54.412;9.980;2023-07-20T10:19:43;3.67;;;1.33;;
8086;SDS011;4086;54.412;9.980;2023-07-20T10:22:12;3.43;;;1.50;;
8086;SDS011;4086;54.412;9.980;2023-07-20T10:24:40;5.07;;;1.37;;
8086;SDS011;4086;54.412;9.980;2023-07-20T10:27:10;3.13;;;1.57;;
8086;SDS011;4086;54.412;9.980;2023-07-20T10:29:36;5.10;;;1.63;;
8086;SDS011;4086;54.412;9.980;2023-07-20T10:32:04;4.40;;;1.50;;
8086;SDS011;4086;54.412;9.980;2023-07-20T10:34:31;5.60;;;1.73;;
8086;SDS011;4086;54.412;9.980;2023-07-20T10:36:59;3.20;;;1.73;;
8086;SDS011;4086;54.412;9.980;2023-07-20T10:39:26;4.43;;;1.60;;
8086;SDS011;4086;54.412;9.980;2023-07-20T10:42:00;3.83;;;1.50;;
8086;SDS011;4086;54.412;9.980;2023-07-20T10:44:28;3.27;;;1.60;;
8086;SDS011;4086;54.412;9.980;2023-07-20T10:46:58;5.27;;;1.60;;
8086;SDS011;4086;54.412;9.980;2023-07-20T10:49:25;2.53;;;1.47;;
8086;SDS011;4086;54.412;9.980;2023-07-20T10:51:55;3.33;;;1.40;;
8086;SDS011;4086;54.412;9.980;2023-07-20T10:57:22;1.97;;;1.40;;
8086;SDS011;4086;54.412;9.980;2023-07-20T10:59:49;3.57;;;1.50;;
8086;SDS011;4086;54.412;9.980;2023-07-20T11:02:17;3.30;;;1.67;;
8086;SDS011;4086;54.412;9.980;2023-07-20T11:04:44;6.90;;;1.70;;
8086;SDS011;4086;54.412;9.980;2023-07-20T11:07:14;5.33;;;1.77;;
8086;SDS011;4086;54.412;9.980;2023-07-20T11:09:42;3.27;;;1.50;;
8086;SDS011;4086;54.412;9.980;2023-07-20T11:12:10;3.97;;;1.80;;
8086;SDS011;4086;54.412;9.980;2023-07-20T11:14:39;4.13;;;1.80;;
8086;SDS011;4086;54.412;9.980;2023-07-20T11:17:10;3.40;;;1.50;;
8086;SDS011;4086;54.412;9.980;2023-07-20T11:19:37;3.50;;;1.70;;
8086;SDS011;4086;54.412;9.980;2023-07-20T11:22:05;3.73;;;1.43;;
8086;SDS011;4086;54.412;9.980;2023-07-20T11:24:34;3.53;;;1.70;;
8086;SDS011;4086;54.412;9.980;2023-07-20T11:27:00;4.40;;;2.13;;
8086;SDS011;4086;54.412;9.980;2023-07-20T11:29:28;3.77;;;1.70;;
8086;SDS011;4086;54.412;9.980;2023-07-20T11:31:55;2.70;;;1.60;;
8086;SDS011;4086;54.412;9.980;2023-07-20T11:34:23;3.30;;;1.63;;
8086;SDS011;4086;54.412;9.980;2023-07-20T11:36:50;3.30;;;1.70;;
8086;SDS011;4086;54.412;9.980;2023-07-20T11:39:18;5.47;;;1.77;;
8086;SDS011;4086;54.412;9.980;2023-07-20T11:41:46;5.00;;;1.80;;
8086;SDS011;4086;54.412;9.980;2023-07-20T11:44:13;3.73;;;1.80;;
8086;SDS011;4086;54.412;9.980;2023-07-20T11:46:42;4.30;;;1.63;;
8086;SDS011;4086;54.412;9.980;2023-07-20T11:49:09;4.93;;;1.90;;
8086;SDS011;4086;54.412;9.980;2023-07-20T11:51:35;4.37;;;1.80;;
8086;SDS011;4086;54.412;9.980;2023-07-20T11:54:03;3.57;;;1.80;;
8086;SDS011;4086;54.412;9.980;2023-07-20T11:56:30;2.50;;;1.60;;
8086;SDS011;4086;54.412;9.980;2023-07-20T11:58:57;2.50;;;1.63;;
8086;SDS011;4086;54.412;9.980;2023-07-20T12:01:26;3.97;;;1.60;;
8086;SDS011;4086;54.412;9.980;2023-07-20T12:03:56;3.97;;;1.60;;
8086;SDS011;4086;54.412;9.980;2023-07-20T12:06:23;3.83;;;1.63;;
8086;SDS011;4086;54.412;9.980;2023-07-20T12:08:50;5.10;;;1.93;;
8086;SDS011;4086;54.412;9.980;2023-07-20T12:11:30;3.40;;;1.67;;
8086;SDS011;4086;54.412;9.980;2023-07-20T12:13:57;3.53;;;1.73;;
8086;SDS011;4086;54.412;9.980;2023-07-20T12:16:26;4.63;;;1.80;;
8086;SDS011;4086;54.412;9.980;2023-07-20T12:19:00;2.77;;;1.43;;
8086;SDS011;4086;54.412;9.980;2023-07-20T12:21:27;2.77;;;1.50;;
8086;SDS011;4086;54.412;9.980;2023-07-20T12:23:55;1.98;;;1.25;;
8086;SDS011;4086;54.412;9.980;2023-07-20T12:26:22;4.07;;;1.40;;
8086;SDS011;4086;54.412;9.980;2023-07-20T12:28:49;1.93;;;1.40;;
8086;SDS011;4086;54.412;9.980;2023-07-20T12:31:15;2.67;;;1.47;;
8086;SDS011;4086;54.412;9.980;2023-07-20T12:33:42;4.17;;;2.10;;
8086;SDS011;4086;54.412;9.980;2023-07-20T12:36:10;3.67;;;1.70;;
8086;SDS011;4086;54.412;9.980;2023-07-20T12:38:37;4.47;;;2.00;;
8086;SDS011;4086;54.412;9.980;2023-07-20T12:41:03;4.30;;;1.60;;
8086;SDS011;4086;54.412;9.980;2023-07-20T12:43:29;3.03;;;1.60;;
8086;SDS011;4086;54.412;9.980;2023-07-20T12:45:57;2.80;;;1.47;;
8086;SDS011;4086;54.412;9.980;2023-07-20T12:48:23;3.13;;;1.20;;
8086;SDS011;4086;54.412;9.980;2023-07-20T12:50:50;2.53;;;1.20;;
8086;SDS011;4086;54.412;9.980;2023-07-20T12:53:18;1.60;;;1.30;;
8086;SDS011;4086;54.412;9.980;2023-07-20T12:55:44;4.43;;;1.40;;
8086;SDS011;4086;54.412;9.980;2023-07-20T12:58:11;2.80;;;1.33;;
8086;SDS011;4086;54.412;9.980;2023-07-20T13:00:38;1.57;;;1.20;;
8086;SDS011;4086;54.412;9.980;2023-07-20T13:03:04;3.50;;;1.47;;
8086;SDS011;4086;54.412;9.980;2023-07-20T13:05:31;4.67;;;1.63;;
8086;SDS011;4086;54.412;9.980;2023-07-20T13:07:58;5.20;;;1.60;;
8086;SDS011;4086;54.412;9.980;2023-07-20T13:10:26;4.07;;;1.60;;
8086;SDS011;4086;54.412;9.980;2023-07-20T13:12:52;3.27;;;1.47;;
8086;SDS011;4086;54.412;9.980;2023-07-20T13:15:19;2.33;;;1.30;;
8086;SDS011;4086;54.412;9.980;2023-07-20T13:17:45;2.50;;;1.20;;
8086;SDS011;4086;54.412;9.980;2023-07-20T13:20:12;2.80;;;1.23;;
8086;SDS011;4086;54.412;9.980;2023-07-20T13:22:38;3.10;;;1.60;;
8086;SDS011;4086;54.412;9.980;2023-07-20T13:25:06;4.40;;;1.50;;
8086;SDS011;4086;54.412;9.980;2023-07-20T13:27:34;3.13;;;1.50;;
8086;SDS011;4086;54.412;9.980;2023-07-20T13:30:01;6.18;;;1.80;;
8086;SDS011;4086;54.412;9.980;2023-07-20T13:32:31;3.87;;;1.53;;
8086;SDS011;4086;54.412;9.980;2023-07-20T13:34:58;3.73;;;1.37;;
8086;SDS011;4086;54.412;9.980;2023-07-20T13:37:24;3.93;;;1.50;;
8086;SDS011;4086;54.412;9.980;2023-07-20T13:39:52;3.13;;;1.50;;
8086;SDS011;4086;54.412;9.980;2023-07-20T13:42:18;2.67;;;1.50;;
8086;SDS011;4086;54.412;9.980;2023-07-20T13:44:47;2.17;;;1.60;;
8086;SDS011;4086;54.412;9.980;2023-07-20T13:47:14;1.88;;;1.35;;
8086;SDS011;4086;54.412;9.980;2023-07-20T13:49:40;2.63;;;1.40;;
8086;SDS011;4086;54.412;9.980;2023-07-20T13:52:07;2.75;;;1.50;;
8086;SDS011;4086;54.412;9.980;2023-07-20T13:54:34;3.43;;;1.47;;
8086;SDS011;4086;54.412;9.980;2023-07-20T13:57:00;2.05;;;1.17;;
8086;SDS011;4086;54.412;9.980;2023-07-20T13:59:27;2.40;;;1.40;;
8086;SDS011;4086;54.412;9.980;2023-07-20T14:01:55;3.53;;;1.30;;
8086;SDS011;4086;54.412;9.980;2023-07-20T14:04:21;2.25;;;1.30;;
8086;SDS011;4086;54.412;9.980;2023-07-20T14:06:47;2.92;;;1.30;;
8086;SDS011;4086;54.412;9.980;2023-07-20T14:09:14;1.75;;;1.40;;
8086;SDS011;4086;54.412;9.980;2023-07-20T14:11:40;1.88;;;1.23;;
8086;SDS011;4086;54.412;9.980;2023-07-20T14:14:07;1.58;;;1.30;;
8086;SDS011;4086;54.412;9.980;2023-07-20T14:16:33;2.42;;;1.35;;
8086;SDS011;4086;54.412;9.980;2023-07-20T14:19:01;1.23;;;1.13;;
8086;SDS011;4086;54.412;9.980;2023-07-20T14:21:29;2.33;;;1.55;;
8086;SDS011;4086;54.412;9.980;2023-07-20T14:23:56;3.28;;;1.40;;
8086;SDS011;4086;54.412;9.980;2023-07-20T14:26:23;3.30;;;1.45;;
8086;SDS011;4086;54.412;9.980;2023-07-20T14:28:49;4.78;;;1.58;;
8086;SDS011;4086;54.412;9.980;2023-07-20T14:31:16;4.28;;;1.48;;
8086;SDS011;4086;54.412;9.980;2023-07-20T14:33:43;3.47;;;1.38;;
8086;SDS011;4086;54.412;9.980;2023-07-20T14:36:11;6.65;;;1.73;;
8086;SDS011;4086;54.412;9.980;2023-07-20T14:38:37;2.45;;;1.40;;
8086;SDS011;4086;54.412;9.980;2023-07-20T14:41:05;2.63;;;1.30;;
8086;SDS011;4086;54.412;9.980;2023-07-20T14:43:31;1.80;;;1.40;;
8086;SDS011;4086;54.412;9.980;2023-07-20T14:45:58;2.70;;;1.40;;
8086;SDS011;4086;54.412;9.980;2023-07-20T14:48:24;1.58;;;1.30;;
8086;SDS011;4086;54.412;9.980;2023-07-20T14:50:50;4.07;;;1.30;;
8086;SDS011;4086;54.412;9.980;2023-07-20T14:53:18;1.90;;;1.38;;
8086;SDS011;4086;54.412;9.980;2023-07-20T14:55:45;1.85;;;1.13;;
8086;SDS011;4086;54.412;9.980;2023-07-20T14:58:11;1.52;;;1.10;;
8086;SDS011;4086;54.412;9.980;2023-07-20T15:00:37;2.85;;;1.30;;
8086;SDS011;4086;54.412;9.980;2023-07-20T15:03:04;1.15;;;1.05;;
8086;SDS011;4086;54.412;9.980;2023-07-20T15:05:30;1.80;;;1.25;;
8086;SDS011;4086;54.412;9.980;2023-07-20T15:07:57;2.45;;;1.15;;
8086;SDS011;4086;54.412;9.980;2023-07-20T15:10:24;1.50;;;1.40;;
8086;SDS011;4086;54.412;9.980;2023-07-20T15:12:51;1.60;;;1.20;;
8086;SDS011;4086;54.412;9.980;2023-07-20T15:15:17;2.30;;;1.30;;
8086;SDS011;4086;54.412;9.980;2023-07-20T15:17:44;2.05;;;1.40;;
8086;SDS011;4086;54.412;9.980;2023-07-20T15:20:11;2.20;;;1.40;;